sensor_id;sensor_type;location;lat;lon;timestamp;pressure;altitude;pressure_sealevel;temperature
70831;BMP180;58451;51.550;7.208;2023-03-01T00:00:04;102262.20;;;-3.40
70831;BMP180;58451;51.550;7.208;2023-03-01T00:01:42;102265.20;;;-3.40
70831;BMP180;58451;51.550;7.208;2023-03-01T00:03:13;102261.80;;;-3.44
70831;BMP180;58451;51.550;7.208;2023-03-01T00:04:45;102263.40;;;-3.48
70831;BMP180;58451;51.550;7.208;2023-03-01T00:06:19;102260.80;;;-3.50
70831;BMP180;58451;51.550;7.208;2023-03-01T00:07:54;102262.20;;;-3.50
70831;BMP180;58451;51.550;7.208;2023-03-01T00:09:26;102266.60;;;-3.50
70831;BMP180;58451;51.550;7.208;2023-03-01T00:11:24;102259.80;;;-3.50
70831;BMP180;58451;51.550;7.208;2023-03-01T00:12:54;102254.00;;;-3.50
70831;BMP180;58451;51.550;7.208;2023-03-01T00:14:28;102253.20;;;-3.50
70831;BMP180;58451;51.550;7.208;2023-03-01T00:16:09;102256.00;;;-3.56
70831;BMP180;58451;51.550;7.208;2023-03-01T00:17:41;102253.40;;;-3.58
70831;BMP180;58451;51.550;7.208;2023-03-01T00:19:17;102255.60;;;-3.60
70831;BMP180;58451;51.550;7.208;2023-03-01T00:20:55;102253.00;;;-3.60
70831;BMP180;58451;51.550;7.208;2023-03-01T00:22:27;102249.00;;;-3.60
70831;BMP180;58451;51.550;7.208;2023-03-01T00:24:00;102245.20;;;-3.60
70831;BMP180;58451;51.550;7.208;2023-03-01T00:25:32;102245.00;;;-3.60
70831;BMP180;58451;51.550;7.208;2023-03-01T00:27:04;102251.60;;;-3.62
70831;BMP180;58451;51.550;7.208;2023-03-01T00:28:36;102255.80;;;-3.70
70831;BMP180;58451;51.550;7.208;2023-03-01T00:30:09;102250.40;;;-3.70
70831;BMP180;58451;51.550;7.208;2023-03-01T00:31:41;102249.40;;;-3.70
70831;BMP180;58451;51.550;7.208;2023-03-01T00:33:13;102247.80;;;-3.70
70831;BMP180;58451;51.550;7.208;2023-03-01T00:34:44;102246.80;;;-3.70
70831;BMP180;58451;51.550;7.208;2023-03-01T00:36:33;102241.00;;;-3.70
70831;BMP180;58451;51.550;7.208;2023-03-01T00:38:06;102244.60;;;-3.76
70831;BMP180;58451;51.550;7.208;2023-03-01T00:39:37;102236.60;;;-3.78
70831;BMP180;58451;51.550;7.208;2023-03-01T00:41:13;102233.00;;;-3.80
70831;BMP180;58451;51.550;7.208;2023-03-01T00:42:45;102236.20;;;-3.80
70831;BMP180;58451;51.550;7.208;2023-03-01T00:44:17;102230.00;;;-3.80
70831;BMP180;58451;51.550;7.208;2023-03-01T00:45:49;102231.40;;;-3.80
70831;BMP180;58451;51.550;7.208;2023-03-01T00:47:21;102227.40;;;-3.80
70831;BMP180;58451;51.550;7.208;2023-03-01T00:48:53;102228.40;;;-3.80
70831;BMP180;58451;51.550;7.208;2023-03-01T00:50:25;102228.20;;;-3.84
70831;BMP180;58451;51.550;7.208;2023-03-01T00:51:57;102224.60;;;-3.88
70831;BMP180;58451;51.550;7.208;2023-03-01T00:53:29;102225.60;;;-3.90
70831;BMP180;58451;51.550;7.208;2023-03-01T00:55:00;102222.20;;;-3.90
70831;BMP180;58451;51.550;7.208;2023-03-01T00:56:32;102222.20;;;-3.90
70831;BMP180;58451;51.550;7.208;2023-03-01T00:58:05;102219.40;;;-3.90
70831;BMP180;58451;51.550;7.208;2023-03-01T00:59:36;102212.80;;;-3.90
70831;BMP180;58451;51.550;7.208;2023-03-01T01:01:20;102217.40;;;-3.92
70831;BMP180;58451;51.550;7.208;2023-03-01T01:02:53;102219.20;;;-4.00
70831;BMP180;58451;51.550;7.208;2023-03-01T01:04:26;102211.80;;;-4.00
70831;BMP180;58451;51.550;7.208;2023-03-01T01:05:58;102211.60;;;-4.00
70831;BMP180;58451;51.550;7.208;2023-03-01T01:07:30;102211.00;;;-4.00
70831;BMP180;58451;51.550;7.208;2023-03-01T01:09:06;102213.40;;;-4.00
70831;BMP180;58451;51.550;7.208;2023-03-01T01:10:38;102214.80;;;-4.04
70831;BMP180;58451;51.550;7.208;2023-03-01T01:12:11;102218.80;;;-4.08
70831;BMP180;58451;51.550;7.208;2023-03-01T01:13:45;102211.20;;;-4.10
70831;BMP180;58451;51.550;7.208;2023-03-01T01:15:18;102211.80;;;-4.10
70831;BMP180;58451;51.550;7.208;2023-03-01T01:16:50;102200.60;;;-4.10
70831;BMP180;58451;51.550;7.208;2023-03-01T01:18:22;102201.00;;;-4.10
70831;BMP180;58451;51.550;7.208;2023-03-01T01:19:54;102196.00;;;-4.10
70831;BMP180;58451;51.550;7.208;2023-03-01T01:21:26;102196.40;;;-4.12
70831;BMP180;58451;51.550;7.208;2023-03-01T01:22:58;102199.40;;;-4.14
70831;BMP180;58451;51.550;7.208;2023-03-01T01:24:31;102198.20;;;-4.16
70831;BMP180;58451;51.550;7.208;2023-03-01T01:26:26;102195.00;;;-4.18
70831;BMP180;58451;51.550;7.208;2023-03-01T01:27:59;102193.20;;;-4.20
70831;BMP180;58451;51.550;7.208;2023-03-01T01:29:31;102195.40;;;-4.20
70831;BMP180;58451;51.550;7.208;2023-03-01T01:31:04;102194.40;;;-4.20
70831;BMP180;58451;51.550;7.208;2023-03-01T01:32:39;102192.80;;;-4.20
70831;BMP180;58451;51.550;7.208;2023-03-01T01:34:18;102193.40;;;-4.20
70831;BMP180;58451;51.550;7.208;2023-03-01T01:35:50;102192.60;;;-4.24
70831;BMP180;58451;51.550;7.208;2023-03-01T01:37:22;102187.80;;;-4.26
70831;BMP180;58451;51.550;7.208;2023-03-01T01:38:54;102187.80;;;-4.30
70831;BMP180;58451;51.550;7.208;2023-03-01T01:40:26;102182.80;;;-4.30
70831;BMP180;58451;51.550;7.208;2023-03-01T01:41:58;102186.40;;;-4.30
70831;BMP180;58451;51.550;7.208;2023-03-01T01:43:35;102184.80;;;-4.30
70831;BMP180;58451;51.550;7.208;2023-03-01T01:45:36;102190.00;;;-4.30
70831;BMP180;58451;51.550;7.208;2023-03-01T01:47:17;102186.00;;;-4.36
70831;BMP180;58451;51.550;7.208;2023-03-01T01:49:05;102184.40;;;-4.40
70831;BMP180;58451;51.550;7.208;2023-03-01T01:50:40;102185.60;;;-4.40
70831;BMP180;58451;51.550;7.208;2023-03-01T01:52:34;102185.80;;;-4.40
70831;BMP180;58451;51.550;7.208;2023-03-01T01:54:15;102186.20;;;-4.36
70831;BMP180;58451;51.550;7.208;2023-03-01T01:55:56;102183.80;;;-4.38
70831;BMP180;58451;51.550;7.208;2023-03-01T01:57:41;102186.40;;;-4.36
70831;BMP180;58451;51.550;7.208;2023-03-01T01:59:14;102187.00;;;-4.32
70831;BMP180;58451;51.550;7.208;2023-03-01T02:00:48;102184.00;;;-4.30
70831;BMP180;58451;51.550;7.208;2023-03-01T02:02:22;102181.80;;;-4.30
70831;BMP180;58451;51.550;7.208;2023-03-01T02:03:54;102177.00;;;-4.30
70831;BMP180;58451;51.550;7.208;2023-03-01T02:07:23;102164.20;;;-4.30
70831;BMP180;58451;51.550;7.208;2023-03-01T02:09:02;102163.80;;;-4.30
70831;BMP180;58451;51.550;7.208;2023-03-01T02:10:38;102160.80;;;-4.30
70831;BMP180;58451;51.550;7.208;2023-03-01T02:12:11;102163.40;;;-4.28
70831;BMP180;58451;51.550;7.208;2023-03-01T02:13:46;102166.20;;;-4.26
70831;BMP180;58451;51.550;7.208;2023-03-01T02:15:19;102169.60;;;-4.30
70831;BMP180;58451;51.550;7.208;2023-03-01T02:16:52;102169.40;;;-4.30
70831;BMP180;58451;51.550;7.208;2023-03-01T02:18:24;102171.20;;;-4.30
70831;BMP180;58451;51.550;7.208;2023-03-01T02:23:54;102151.80;;;-4.30
70831;BMP180;58451;51.550;7.208;2023-03-01T02:29:47;102157.60;;;-4.30
70831;BMP180;58451;51.550;7.208;2023-03-01T02:31:21;102153.40;;;-4.34
70831;BMP180;58451;51.550;7.208;2023-03-01T02:33:12;102153.60;;;-4.40
70831;BMP180;58451;51.550;7.208;2023-03-01T02:34:44;102151.60;;;-4.40
70831;BMP180;58451;51.550;7.208;2023-03-01T02:36:20;102153.80;;;-4.40
70831;BMP180;58451;51.550;7.208;2023-03-01T02:37:53;102153.20;;;-4.42
70831;BMP180;58451;51.550;7.208;2023-03-01T02:39:42;102157.80;;;-4.46
70831;BMP180;58451;51.550;7.208;2023-03-01T02:41:19;102154.20;;;-4.50
70831;BMP180;58451;51.550;7.208;2023-03-01T02:42:58;102162.00;;;-4.40
70831;BMP180;58451;51.550;7.208;2023-03-01T02:44:30;102156.40;;;-4.46
70831;BMP180;58451;51.550;7.208;2023-03-01T02:46:21;102156.40;;;-4.44
70831;BMP180;58451;51.550;7.208;2023-03-01T02:47:55;102159.40;;;-4.50
70831;BMP180;58451;51.550;7.208;2023-03-01T02:49:34;102164.00;;;-4.48
70831;BMP180;58451;51.550;7.208;2023-03-01T02:55:15;102162.60;;;-4.50
70831;BMP180;58451;51.550;7.208;2023-03-01T02:56:48;102161.80;;;-4.50
70831;BMP180;58451;51.550;7.208;2023-03-01T02:58:22;102157.20;;;-4.50
70831;BMP180;58451;51.550;7.208;2023-03-01T02:59:56;102155.40;;;-4.52
70831;BMP180;58451;51.550;7.208;2023-03-01T03:01:29;102157.20;;;-4.50
70831;BMP180;58451;51.550;7.208;2023-03-01T03:03:15;102154.00;;;-4.50
70831;BMP180;58451;51.550;7.208;2023-03-01T03:04:48;102160.60;;;-4.52
70831;BMP180;58451;51.550;7.208;2023-03-01T03:06:20;102163.00;;;-4.52
70831;BMP180;58451;51.550;7.208;2023-03-01T03:07:52;102155.80;;;-4.60
70831;BMP180;58451;51.550;7.208;2023-03-01T03:09:25;102152.40;;;-4.58
70831;BMP180;58451;51.550;7.208;2023-03-01T03:10:57;102152.60;;;-4.60
70831;BMP180;58451;51.550;7.208;2023-03-01T03:12:29;102149.00;;;-4.60
70831;BMP180;58451;51.550;7.208;2023-03-01T03:14:02;102150.60;;;-4.60
70831;BMP180;58451;51.550;7.208;2023-03-01T03:15:35;102150.20;;;-4.60
70831;BMP180;58451;51.550;7.208;2023-03-01T03:17:07;102156.20;;;-4.60
70831;BMP180;58451;51.550;7.208;2023-03-01T03:18:39;102152.20;;;-4.60
70831;BMP180;58451;51.550;7.208;2023-03-01T03:20:14;102155.60;;;-4.60
70831;BMP180;58451;51.550;7.208;2023-03-01T03:21:50;102149.60;;;-4.60
70831;BMP180;58451;51.550;7.208;2023-03-01T03:23:22;102143.00;;;-4.60
70831;BMP180;58451;51.550;7.208;2023-03-01T03:24:54;102147.20;;;-4.60
70831;BMP180;58451;51.550;7.208;2023-03-01T03:26:26;102143.40;;;-4.60
70831;BMP180;58451;51.550;7.208;2023-03-01T03:27:58;102148.40;;;-4.60
70831;BMP180;58451;51.550;7.208;2023-03-01T03:29:31;102148.80;;;-4.60
70831;BMP180;58451;51.550;7.208;2023-03-01T03:31:06;102145.40;;;-4.60
70831;BMP180;58451;51.550;7.208;2023-03-01T03:32:41;102145.80;;;-4.60
70831;BMP180;58451;51.550;7.208;2023-03-01T03:34:13;102148.80;;;-4.60
70831;BMP180;58451;51.550;7.208;2023-03-01T03:35:50;102146.00;;;-4.60
70831;BMP180;58451;51.550;7.208;2023-03-01T03:37:22;102145.20;;;-4.60
70831;BMP180;58451;51.550;7.208;2023-03-01T03:39:12;102143.80;;;-4.60
70831;BMP180;58451;51.550;7.208;2023-03-01T03:40:48;102139.20;;;-4.66
70831;BMP180;58451;51.550;7.208;2023-03-01T03:42:21;102133.20;;;-4.70
70831;BMP180;58451;51.550;7.208;2023-03-01T03:43:54;102138.40;;;-4.70
70831;BMP180;58451;51.550;7.208;2023-03-01T03:45:25;102129.40;;;-4.70
70831;BMP180;58451;51.550;7.208;2023-03-01T03:46:57;102126.60;;;-4.70
70831;BMP180;58451;51.550;7.208;2023-03-01T03:48:29;102119.80;;;-4.70
70831;BMP180;58451;51.550;7.208;2023-03-01T03:50:01;102126.40;;;-4.70
70831;BMP180;58451;51.550;7.208;2023-03-01T03:51:32;102119.80;;;-4.72
70831;BMP180;58451;51.550;7.208;2023-03-01T03:53:09;102123.20;;;-4.76
70831;BMP180;58451;51.550;7.208;2023-03-01T03:54:41;102114.60;;;-4.80
70831;BMP180;58451;51.550;7.208;2023-03-01T03:56:13;102110.20;;;-4.80
70831;BMP180;58451;51.550;7.208;2023-03-01T03:57:47;102118.60;;;-4.80
70831;BMP180;58451;51.550;7.208;2023-03-01T03:59:23;102110.80;;;-4.80
70831;BMP180;58451;51.550;7.208;2023-03-01T04:00:57;102111.40;;;-4.80
70831;BMP180;58451;51.550;7.208;2023-03-01T04:02:28;102107.20;;;-4.80
70831;BMP180;58451;51.550;7.208;2023-03-01T04:04:00;102109.80;;;-4.86
70831;BMP180;58451;51.550;7.208;2023-03-01T04:05:38;102108.60;;;-4.90
70831;BMP180;58451;51.550;7.208;2023-03-01T04:07:10;102109.40;;;-4.90
70831;BMP180;58451;51.550;7.208;2023-03-01T04:08:42;102106.40;;;-4.90
70831;BMP180;58451;51.550;7.208;2023-03-01T04:10:17;102106.40;;;-4.90
70831;BMP180;58451;51.550;7.208;2023-03-01T04:11:49;102104.80;;;-4.90
70831;BMP180;58451;51.550;7.208;2023-03-01T04:13:22;102108.20;;;-4.90
70831;BMP180;58451;51.550;7.208;2023-03-01T04:14:55;102112.80;;;-4.90
70831;BMP180;58451;51.550;7.208;2023-03-01T04:16:27;102108.20;;;-4.96
70831;BMP180;58451;51.550;7.208;2023-03-01T04:18:01;102112.00;;;-5.00
70831;BMP180;58451;51.550;7.208;2023-03-01T04:19:33;102110.20;;;-5.00
70831;BMP180;58451;51.550;7.208;2023-03-01T04:21:07;102112.80;;;-5.00
70831;BMP180;58451;51.550;7.208;2023-03-01T04:22:40;102109.60;;;-5.00
70831;BMP180;58451;51.550;7.208;2023-03-01T04:24:12;102108.00;;;-5.00
70831;BMP180;58451;51.550;7.208;2023-03-01T04:27:25;102113.60;;;-5.00
70831;BMP180;58451;51.550;7.208;2023-03-01T04:28:57;102115.40;;;-5.00
70831;BMP180;58451;51.550;7.208;2023-03-01T04:30:29;102113.00;;;-5.08
70831;BMP180;58451;51.550;7.208;2023-03-01T04:32:00;102113.00;;;-5.10
70831;BMP180;58451;51.550;7.208;2023-03-01T04:33:32;102107.80;;;-5.10
70831;BMP180;58451;51.550;7.208;2023-03-01T04:35:05;102105.20;;;-5.10
70831;BMP180;58451;51.550;7.208;2023-03-01T04:36:36;102108.40;;;-5.10
70831;BMP180;58451;51.550;7.208;2023-03-01T04:38:09;102110.00;;;-5.10
70831;BMP180;58451;51.550;7.208;2023-03-01T04:39:41;102111.40;;;-5.08
70831;BMP180;58451;51.550;7.208;2023-03-01T04:41:21;102108.40;;;-5.10
70831;BMP180;58451;51.550;7.208;2023-03-01T04:42:53;102111.80;;;-5.10
70831;BMP180;58451;51.550;7.208;2023-03-01T04:44:25;102104.60;;;-5.08
70831;BMP180;58451;51.550;7.208;2023-03-01T04:46:03;102107.40;;;-5.10
70831;BMP180;58451;51.550;7.208;2023-03-01T04:47:35;102106.40;;;-5.10
70831;BMP180;58451;51.550;7.208;2023-03-01T04:49:09;102100.60;;;-5.10
70831;BMP180;58451;51.550;7.208;2023-03-01T04:50:41;102095.00;;;-5.10
70831;BMP180;58451;51.550;7.208;2023-03-01T04:52:13;102095.80;;;-5.10
70831;BMP180;58451;51.550;7.208;2023-03-01T04:53:45;102098.60;;;-5.10
70831;BMP180;58451;51.550;7.208;2023-03-01T04:55:17;102099.80;;;-5.10
70831;BMP180;58451;51.550;7.208;2023-03-01T04:56:49;102097.60;;;-5.08
70831;BMP180;58451;51.550;7.208;2023-03-01T04:58:23;102099.20;;;-5.08
70831;BMP180;58451;51.550;7.208;2023-03-01T04:59:55;102102.00;;;-5.10
70831;BMP180;58451;51.550;7.208;2023-03-01T05:01:27;102099.60;;;-5.10
70831;BMP180;58451;51.550;7.208;2023-03-01T05:03:00;102099.60;;;-5.10
70831;BMP180;58451;51.550;7.208;2023-03-01T05:04:32;102099.80;;;-5.10
70831;BMP180;58451;51.550;7.208;2023-03-01T05:06:04;102101.40;;;-5.10
70831;BMP180;58451;51.550;7.208;2023-03-01T05:07:36;102098.40;;;-5.10
70831;BMP180;58451;51.550;7.208;2023-03-01T05:09:08;102097.40;;;-5.10
70831;BMP180;58451;51.550;7.208;2023-03-01T05:10:40;102096.20;;;-5.10
70831;BMP180;58451;51.550;7.208;2023-03-01T05:12:14;102096.00;;;-5.10
70831;BMP180;58451;51.550;7.208;2023-03-01T05:13:47;102089.40;;;-5.10
70831;BMP180;58451;51.550;7.208;2023-03-01T05:15:19;102086.00;;;-5.10
70831;BMP180;58451;51.550;7.208;2023-03-01T05:16:53;102087.80;;;-5.10
70831;BMP180;58451;51.550;7.208;2023-03-01T05:18:26;102090.20;;;-5.10
70831;BMP180;58451;51.550;7.208;2023-03-01T05:19:59;102086.20;;;-5.10
70831;BMP180;58451;51.550;7.208;2023-03-01T05:21:32;102088.20;;;-5.10
70831;BMP180;58451;51.550;7.208;2023-03-01T05:23:05;102087.20;;;-5.10
70831;BMP180;58451;51.550;7.208;2023-03-01T05:24:37;102085.00;;;-5.10
70831;BMP180;58451;51.550;7.208;2023-03-01T05:26:10;102087.00;;;-5.10
70831;BMP180;58451;51.550;7.208;2023-03-01T05:28:01;102089.80;;;-5.14
70831;BMP180;58451;51.550;7.208;2023-03-01T05:29:35;102091.40;;;-5.16
70831;BMP180;58451;51.550;7.208;2023-03-01T05:31:07;102087.00;;;-5.18
70831;BMP180;58451;51.550;7.208;2023-03-01T05:32:48;102085.80;;;-5.20
70831;BMP180;58451;51.550;7.208;2023-03-01T05:34:35;102086.20;;;-5.20
70831;BMP180;58451;51.550;7.208;2023-03-01T05:36:09;102087.80;;;-5.20
70831;BMP180;58451;51.550;7.208;2023-03-01T05:37:46;102085.00;;;-5.20
70831;BMP180;58451;51.550;7.208;2023-03-01T05:39:24;102085.80;;;-5.20
70831;BMP180;58451;51.550;7.208;2023-03-01T05:40:57;102081.00;;;-5.20
70831;BMP180;58451;51.550;7.208;2023-03-01T05:42:29;102078.40;;;-5.20
70831;BMP180;58451;51.550;7.208;2023-03-01T05:44:01;102080.80;;;-5.20
70831;BMP180;58451;51.550;7.208;2023-03-01T05:45:38;102078.40;;;-5.20
70831;BMP180;58451;51.550;7.208;2023-03-01T05:47:10;102083.80;;;-5.20
70831;BMP180;58451;51.550;7.208;2023-03-01T05:48:42;102080.60;;;-5.20
70831;BMP180;58451;51.550;7.208;2023-03-01T05:50:24;102084.00;;;-5.20
70831;BMP180;58451;51.550;7.208;2023-03-01T05:51:56;102081.60;;;-5.20
70831;BMP180;58451;51.550;7.208;2023-03-01T05:53:28;102086.80;;;-5.20
70831;BMP180;58451;51.550;7.208;2023-03-01T05:55:00;102083.00;;;-5.20
70831;BMP180;58451;51.550;7.208;2023-03-01T05:56:34;102089.20;;;-5.20
70831;BMP180;58451;51.550;7.208;2023-03-01T05:58:10;102086.00;;;-5.20
70831;BMP180;58451;51.550;7.208;2023-03-01T05:59:42;102089.60;;;-5.20
70831;BMP180;58451;51.550;7.208;2023-03-01T06:01:14;102090.80;;;-5.20
70831;BMP180;58451;51.550;7.208;2023-03-01T06:02:46;102091.00;;;-5.20
70831;BMP180;58451;51.550;7.208;2023-03-01T06:04:18;102085.00;;;-5.20
70831;BMP180;58451;51.550;7.208;2023-03-01T06:05:55;102081.80;;;-5.20
70831;BMP180;58451;51.550;7.208;2023-03-01T06:07:27;102076.20;;;-5.20
70831;BMP180;58451;51.550;7.208;2023-03-01T06:08:59;102070.60;;;-5.18
70831;BMP180;58451;51.550;7.208;2023-03-01T06:10:31;102069.00;;;-5.20
70831;BMP180;58451;51.550;7.208;2023-03-01T06:12:03;102066.80;;;-5.14
70831;BMP180;58451;51.550;7.208;2023-03-01T06:13:36;102066.40;;;-5.12
70831;BMP180;58451;51.550;7.208;2023-03-01T06:15:11;102072.00;;;-5.10
70831;BMP180;58451;51.550;7.208;2023-03-01T06:16:43;102063.20;;;-5.12
70831;BMP180;58451;51.550;7.208;2023-03-01T06:18:15;102065.60;;;-5.14
70831;BMP180;58451;51.550;7.208;2023-03-01T06:19:47;102063.00;;;-5.10
70831;BMP180;58451;51.550;7.208;2023-03-01T06:21:19;102064.40;;;-5.10
70831;BMP180;58451;51.550;7.208;2023-03-01T06:22:52;102067.20;;;-5.10
70831;BMP180;58451;51.550;7.208;2023-03-01T06:24:24;102067.80;;;-5.10
70831;BMP180;58451;51.550;7.208;2023-03-01T06:25:56;102065.40;;;-5.10
70831;BMP180;58451;51.550;7.208;2023-03-01T06:27:28;102066.80;;;-5.10
70831;BMP180;58451;51.550;7.208;2023-03-01T06:28:59;102071.40;;;-5.10
70831;BMP180;58451;51.550;7.208;2023-03-01T06:30:31;102067.60;;;-5.10
70831;BMP180;58451;51.550;7.208;2023-03-01T06:32:04;102063.00;;;-5.10
70831;BMP180;58451;51.550;7.208;2023-03-01T06:33:35;102062.80;;;-5.10
70831;BMP180;58451;51.550;7.208;2023-03-01T06:35:10;102065.20;;;-5.06
70831;BMP180;58451;51.550;7.208;2023-03-01T06:36:42;102072.60;;;-5.02
70831;BMP180;58451;51.550;7.208;2023-03-01T06:38:14;102068.40;;;-5.00
70831;BMP180;58451;51.550;7.208;2023-03-01T06:39:46;102072.00;;;-5.00
70831;BMP180;58451;51.550;7.208;2023-03-01T06:41:18;102067.60;;;-5.00
70831;BMP180;58451;51.550;7.208;2023-03-01T06:42:51;102070.40;;;-5.00
70831;BMP180;58451;51.550;7.208;2023-03-01T06:44:25;102070.80;;;-4.90
70831;BMP180;58451;51.550;7.208;2023-03-01T06:45:57;102068.60;;;-4.90
70831;BMP180;58451;51.550;7.208;2023-03-01T06:47:28;102071.80;;;-4.90
70831;BMP180;58451;51.550;7.208;2023-03-01T06:49:00;102071.00;;;-4.86
70831;BMP180;58451;51.550;7.208;2023-03-01T06:50:34;102070.00;;;-4.80
70831;BMP180;58451;51.550;7.208;2023-03-01T06:52:06;102067.40;;;-4.80
70831;BMP180;58451;51.550;7.208;2023-03-01T06:53:38;102074.00;;;-4.76
70831;BMP180;58451;51.550;7.208;2023-03-01T06:55:12;102065.20;;;-4.70
70831;BMP180;58451;51.550;7.208;2023-03-01T06:56:49;102066.40;;;-4.62
70831;BMP180;58451;51.550;7.208;2023-03-01T06:58:23;102066.80;;;-4.60
70831;BMP180;58451;51.550;7.208;2023-03-01T06:59:55;102064.00;;;-4.50
70831;BMP180;58451;51.550;7.208;2023-03-01T07:01:27;102069.20;;;-4.46
70831;BMP180;58451;51.550;7.208;2023-03-01T07:03:01;102069.60;;;-4.40
70831;BMP180;58451;51.550;7.208;2023-03-01T07:04:34;102067.00;;;-4.30
70831;BMP180;58451;51.550;7.208;2023-03-01T07:06:06;102063.40;;;-4.30
70831;BMP180;58451;51.550;7.208;2023-03-01T07:07:38;102066.80;;;-4.20
70831;BMP180;58451;51.550;7.208;2023-03-01T07:09:10;102064.40;;;-4.12
70831;BMP180;58451;51.550;7.208;2023-03-01T07:10:42;102065.80;;;-4.10
70831;BMP180;58451;51.550;7.208;2023-03-01T07:12:14;102064.80;;;-4.00
70831;BMP180;58451;51.550;7.208;2023-03-01T07:13:45;102065.00;;;-3.98
70831;BMP180;58451;51.550;7.208;2023-03-01T07:15:17;102066.60;;;-3.90
70831;BMP180;58451;51.550;7.208;2023-03-01T07:16:50;102058.80;;;-3.82
70831;BMP180;58451;51.550;7.208;2023-03-01T07:18:21;102060.40;;;-3.80
70831;BMP180;58451;51.550;7.208;2023-03-01T07:19:53;102056.20;;;-3.70
70831;BMP180;58451;51.550;7.208;2023-03-01T07:21:26;102052.40;;;-3.60
70831;BMP180;58451;51.550;7.208;2023-03-01T07:22:58;102017.00;;;-3.20
70831;BMP180;58451;51.550;7.208;2023-03-01T07:24:30;102042.80;;;-1.98
70831;BMP180;58451;51.550;7.208;2023-03-01T07:26:02;102046.80;;;-1.64
70831;BMP180;58451;51.550;7.208;2023-03-01T07:27:34;102041.00;;;-1.40
70831;BMP180;58451;51.550;7.208;2023-03-01T07:29:07;102046.40;;;-1.20
70831;BMP180;58451;51.550;7.208;2023-03-01T07:30:41;102051.00;;;-1.18
70831;BMP180;58451;51.550;7.208;2023-03-01T07:32:13;102055.00;;;-1.20
70831;BMP180;58451;51.550;7.208;2023-03-01T07:33:44;102059.60;;;-1.30
70831;BMP180;58451;51.550;7.208;2023-03-01T07:35:16;102069.40;;;-1.30
70831;BMP180;58451;51.550;7.208;2023-03-01T07:36:48;102061.80;;;-1.40
70831;BMP180;58451;51.550;7.208;2023-03-01T07:38:20;102061.80;;;-1.40
70831;BMP180;58451;51.550;7.208;2023-03-01T07:39:52;102055.20;;;-1.50
70831;BMP180;58451;51.550;7.208;2023-03-01T07:41:24;102057.40;;;-1.60
70831;BMP180;58451;51.550;7.208;2023-03-01T07:43:06;102057.00;;;-1.60
70831;BMP180;58451;51.550;7.208;2023-03-01T07:44:37;102060.40;;;-1.60
70831;BMP180;58451;51.550;7.208;2023-03-01T07:46:10;102061.40;;;-1.60
70831;BMP180;58451;51.550;7.208;2023-03-01T07:47:42;102053.20;;;-1.60
70831;BMP180;58451;51.550;7.208;2023-03-01T07:49:14;102050.20;;;-1.68
70831;BMP180;58451;51.550;7.208;2023-03-01T07:50:46;102050.60;;;-1.68
70831;BMP180;58451;51.550;7.208;2023-03-01T07:52:20;102050.60;;;-1.64
70831;BMP180;58451;51.550;7.208;2023-03-01T07:53:52;102046.20;;;-1.66
70831;BMP180;58451;51.550;7.208;2023-03-01T07:55:24;102052.20;;;-1.62
70831;BMP180;58451;51.550;7.208;2023-03-01T07:56:57;102050.40;;;-1.62
70831;BMP180;58451;51.550;7.208;2023-03-01T07:58:29;102047.80;;;-1.60
70831;BMP180;58451;51.550;7.208;2023-03-01T08:00:01;102047.80;;;-1.60
70831;BMP180;58451;51.550;7.208;2023-03-01T08:01:42;102044.60;;;-1.50
70831;BMP180;58451;51.550;7.208;2023-03-01T08:03:14;102056.40;;;-1.50
70831;BMP180;58451;51.550;7.208;2023-03-01T08:04:46;102054.80;;;-1.50
70831;BMP180;58451;51.550;7.208;2023-03-01T08:06:19;102054.40;;;-1.42
70831;BMP180;58451;51.550;7.208;2023-03-01T08:07:50;102055.60;;;-1.40
70831;BMP180;58451;51.550;7.208;2023-03-01T08:09:23;102059.20;;;-1.32
70831;BMP180;58451;51.550;7.208;2023-03-01T08:11:00;102061.00;;;-1.30
70831;BMP180;58451;51.550;7.208;2023-03-01T08:12:32;102062.00;;;-1.22
70831;BMP180;58451;51.550;7.208;2023-03-01T08:14:06;102057.20;;;-1.20
70831;BMP180;58451;51.550;7.208;2023-03-01T08:15:38;102057.00;;;-1.16
70831;BMP180;58451;51.550;7.208;2023-03-01T08:17:10;102053.20;;;-1.10
70831;BMP180;58451;51.550;7.208;2023-03-01T08:18:43;102058.60;;;-1.00
70831;BMP180;58451;51.550;7.208;2023-03-01T08:20:15;102058.60;;;-0.96
70831;BMP180;58451;51.550;7.208;2023-03-01T08:21:50;102057.40;;;-0.90
70831;BMP180;58451;51.550;7.208;2023-03-01T08:23:23;102057.80;;;-0.80
70831;BMP180;58451;51.550;7.208;2023-03-01T08:24:55;102056.80;;;-0.80
70831;BMP180;58451;51.550;7.208;2023-03-01T08:26:28;102050.80;;;-0.70
70831;BMP180;58451;51.550;7.208;2023-03-01T08:28:01;102051.20;;;-0.62
70831;BMP180;58451;51.550;7.208;2023-03-01T08:29:33;102052.40;;;-0.60
70831;BMP180;58451;51.550;7.208;2023-03-01T08:32:55;102048.40;;;-0.42
70831;BMP180;58451;51.550;7.208;2023-03-01T08:34:28;102050.20;;;-0.40
70831;BMP180;58451;51.550;7.208;2023-03-01T08:36:05;102047.80;;;-0.34
70831;BMP180;58451;51.550;7.208;2023-03-01T08:37:38;102040.00;;;-0.30
70831;BMP180;58451;51.550;7.208;2023-03-01T08:39:14;102042.60;;;-0.20
70831;BMP180;58451;51.550;7.208;2023-03-01T08:40:46;102045.40;;;-0.20
70831;BMP180;58451;51.550;7.208;2023-03-01T08:42:18;102047.20;;;-0.10
70831;BMP180;58451;51.550;7.208;2023-03-01T08:43:50;102039.60;;;-0.10
70831;BMP180;58451;51.550;7.208;2023-03-01T08:45:22;102038.80;;;-0.02
70831;BMP180;58451;51.550;7.208;2023-03-01T08:46:54;102038.20;;;0.00
70831;BMP180;58451;51.550;7.208;2023-03-01T08:48:28;102028.80;;;0.10
70831;BMP180;58451;51.550;7.208;2023-03-01T08:50:02;102034.60;;;0.10
70831;BMP180;58451;51.550;7.208;2023-03-01T08:51:35;102034.20;;;0.20
70831;BMP180;58451;51.550;7.208;2023-03-01T08:53:10;102032.40;;;0.24
70831;BMP180;58451;51.550;7.208;2023-03-01T08:54:42;102031.00;;;0.30
70831;BMP180;58451;51.550;7.208;2023-03-01T08:56:16;102031.80;;;0.38
70831;BMP180;58451;51.550;7.208;2023-03-01T08:57:48;102033.00;;;0.42
70831;BMP180;58451;51.550;7.208;2023-03-01T08:59:20;102029.40;;;0.50
70831;BMP180;58451;51.550;7.208;2023-03-01T09:00:52;102030.60;;;0.60
70831;BMP180;58451;51.550;7.208;2023-03-01T09:02:24;102028.80;;;0.60
70831;BMP180;58451;51.550;7.208;2023-03-01T09:03:56;102030.60;;;0.70
70831;BMP180;58451;51.550;7.208;2023-03-01T09:05:28;102030.40;;;0.78
70831;BMP180;58451;51.550;7.208;2023-03-01T09:07:00;102031.60;;;0.82
70831;BMP180;58451;51.550;7.208;2023-03-01T09:08:35;102026.80;;;0.90
70831;BMP180;58451;51.550;7.208;2023-03-01T09:10:09;102032.80;;;1.00